sensor_id;sensor_type;location;lat;lon;timestamp;pressure;altitude;pressure_sealevel;temperature;humidity
70730;BME280;58315;53.336;55.932;2023-03-18T00:00:20;100436.31;;;3.88;41.59
70730;BME280;58315;53.336;55.932;2023-03-18T00:02:47;100421.72;;;3.84;42.25
70730;BME280;58315;53.336;55.932;2023-03-18T00:05:14;100420.38;;;3.75;42.24
70730;BME280;58315;53.336;55.932;2023-03-18T00:07:40;100431.44;;;3.63;42.56
70730;BME280;58315;53.336;55.932;2023-03-18T00:10:08;100432.28;;;3.63;42.52
70730;BME280;58315;53.336;55.932;2023-03-18T00:12:36;100431.44;;;3.63;42.84
70730;BME280;58315;53.336;55.932;2023-03-18T00:15:08;100422.56;;;3.66;42.50
70730;BME280;58315;53.336;55.932;2023-03-18T00:17:35;100430.50;;;3.64;43.17
70730;BME280;58315;53.336;55.932;2023-03-18T00:20:04;100432.03;;;3.68;42.77
70730;BME280;58315;53.336;55.932;2023-03-18T00:22:36;100433.69;;;3.71;42.10
70730;BME280;58315;53.336;55.932;2023-03-18T00:25:04;100439.88;;;3.68;41.83
70730;BME280;58315;53.336;55.932;2023-03-18T00:27:30;100441.75;;;3.66;41.81
70730;BME280;58315;53.336;55.932;2023-03-18T00:29:56;100438.50;;;3.61;41.82
70730;BME280;58315;53.336;55.932;2023-03-18T00:32:25;100439.34;;;3.61;41.61
70730;BME280;58315;53.336;55.932;2023-03-18T00:34:54;100438.19;;;3.67;41.73
70730;BME280;58315;53.336;55.932;2023-03-18T00:37:23;100440.69;;;3.70;41.84
70730;BME280;58315;53.336;55.932;2023-03-18T00:40:05;100437.91;;;3.73;41.50
70730;BME280;58315;53.336;55.932;2023-03-18T00:42:35;100440.84;;;3.84;41.97
70730;BME280;58315;53.336;55.932;2023-03-18T00:45:08;100445.91;;;3.87;41.68
70730;BME280;58315;53.336;55.932;2023-03-18T00:47:38;100453.00;;;3.85;41.99
70730;BME280;58315;53.336;55.932;2023-03-18T00:50:06;100458.22;;;3.85;42.39
70730;BME280;58315;53.336;55.932;2023-03-18T00:52:33;100459.22;;;3.83;41.93
70730;BME280;58315;53.336;55.932;2023-03-18T00:55:00;100450.47;;;3.84;41.52
70730;BME280;58315;53.336;55.932;2023-03-18T00:57:29;100453.94;;;3.84;42.05
70730;BME280;58315;53.336;55.932;2023-03-18T00:59:56;100458.50;;;3.79;42.17
70730;BME280;58315;53.336;55.932;2023-03-18T01:02:25;100463.00;;;3.77;42.30
70730;BME280;58315;53.336;55.932;2023-03-18T01:04:52;100445.53;;;3.78;42.11
70730;BME280;58315;53.336;55.932;2023-03-18T01:07:18;100457.53;;;3.82;42.19
70730;BME280;58315;53.336;55.932;2023-03-18T01:09:44;100455.53;;;3.87;42.15
70730;BME280;58315;53.336;55.932;2023-03-18T01:12:11;100451.00;;;3.91;42.43
70730;BME280;58315;53.336;55.932;2023-03-18T01:14:38;100446.69;;;3.90;42.36
70730;BME280;58315;53.336;55.932;2023-03-18T01:17:05;100441.38;;;3.91;42.48
70730;BME280;58315;53.336;55.932;2023-03-18T01:19:32;100446.41;;;3.96;42.40
70730;BME280;58315;53.336;55.932;2023-03-18T01:21:59;100452.47;;;3.96;42.36
70730;BME280;58315;53.336;55.932;2023-03-18T01:24:25;100451.78;;;3.93;43.30
70730;BME280;58315;53.336;55.932;2023-03-18T01:26:52;100453.59;;;3.91;42.88
70730;BME280;58315;53.336;55.932;2023-03-18T01:29:19;100445.00;;;3.89;42.89
70730;BME280;58315;53.336;55.932;2023-03-18T01:31:48;100451.00;;;3.91;43.32
70730;BME280;58315;53.336;55.932;2023-03-18T01:34:15;100450.00;;;3.93;43.18
70730;BME280;58315;53.336;55.932;2023-03-18T01:36:48;100445.75;;;3.91;42.71
70730;BME280;58315;53.336;55.932;2023-03-18T01:39:15;100448.38;;;3.91;42.96
70730;BME280;58315;53.336;55.932;2023-03-18T01:41:43;100441.47;;;3.90;42.35
70730;BME280;58315;53.336;55.932;2023-03-18T01:44:16;100444.09;;;3.90;43.01
70730;BME280;58315;53.336;55.932;2023-03-18T01:46:44;100447.16;;;3.98;42.61
70730;BME280;58315;53.336;55.932;2023-03-18T01:49:27;100439.13;;;3.83;42.67
70730;BME280;58315;53.336;55.932;2023-03-18T01:52:02;100433.00;;;3.84;43.18
70730;BME280;58315;53.336;55.932;2023-03-18T01:54:34;100425.38;;;3.80;42.72
70730;BME280;58315;53.336;55.932;2023-03-18T01:57:03;100426.38;;;3.77;42.73
70730;BME280;58315;53.336;55.932;2023-03-18T01:59:32;100425.75;;;3.72;43.38
70730;BME280;58315;53.336;55.932;2023-03-18T02:02:06;100423.06;;;3.74;43.59
70730;BME280;58315;53.336;55.932;2023-03-18T02:04:44;100432.84;;;3.70;43.18
70730;BME280;58315;53.336;55.932;2023-03-18T02:07:15;100425.19;;;3.66;43.53
70730;BME280;58315;53.336;55.932;2023-03-18T02:09:42;100433.81;;;3.68;43.64
70730;BME280;58315;53.336;55.932;2023-03-18T02:12:10;100433.72;;;3.69;43.69
70730;BME280;58315;53.336;55.932;2023-03-18T02:14:37;100428.72;;;3.65;43.63
70730;BME280;58315;53.336;55.932;2023-03-18T02:17:30;100430.66;;;3.61;43.50
70730;BME280;58315;53.336;55.932;2023-03-18T02:22:59;100430.03;;;3.56;43.96
70730;BME280;58315;53.336;55.932;2023-03-18T02:28:19;100433.50;;;3.56;43.65
70730;BME280;58315;53.336;55.932;2023-03-18T02:30:51;100428.34;;;3.55;43.99
70730;BME280;58315;53.336;55.932;2023-03-18T02:33:20;100421.03;;;3.44;44.08
70730;BME280;58315;53.336;55.932;2023-03-18T02:35:51;100417.53;;;3.44;44.41
70730;BME280;58315;53.336;55.932;2023-03-18T02:38:20;100416.00;;;3.39;44.49
70730;BME280;58315;53.336;55.932;2023-03-18T02:40:48;100414.59;;;3.32;44.76
70730;BME280;58315;53.336;55.932;2023-03-18T02:43:24;100419.91;;;3.31;45.20
70730;BME280;58315;53.336;55.932;2023-03-18T02:49:08;100407.94;;;3.25;45.38
70730;BME280;58315;53.336;55.932;2023-03-18T02:51:36;100412.78;;;3.16;45.60
70730;BME280;58315;53.336;55.932;2023-03-18T02:54:11;100415.25;;;3.19;45.96
70730;BME280;58315;53.336;55.932;2023-03-18T02:56:39;100421.59;;;3.13;46.12
70730;BME280;58315;53.336;55.932;2023-03-18T02:59:06;100418.22;;;3.11;46.49
70730;BME280;58315;53.336;55.932;2023-03-18T03:01:33;100427.25;;;3.04;46.74
70730;BME280;58315;53.336;55.932;2023-03-18T03:04:00;100430.75;;;3.03;46.54
70730;BME280;58315;53.336;55.932;2023-03-18T03:06:27;100427.38;;;3.20;46.74
70730;BME280;58315;53.336;55.932;2023-03-18T03:08:54;100427.81;;;3.29;46.46
70730;BME280;58315;53.336;55.932;2023-03-18T03:11:23;100418.81;;;3.35;46.37
70730;BME280;58315;53.336;55.932;2023-03-18T03:13:52;100426.81;;;3.32;46.70
70730;BME280;58315;53.336;55.932;2023-03-18T03:16:19;100419.47;;;3.40;46.63
70730;BME280;58315;53.336;55.932;2023-03-18T03:18:45;100419.47;;;3.40;46.33
70730;BME280;58315;53.336;55.932;2023-03-18T03:21:11;100420.00;;;3.47;46.55
70730;BME280;58315;53.336;55.932;2023-03-18T03:23:39;100425.09;;;3.50;46.66
70730;BME280;58315;53.336;55.932;2023-03-18T03:26:06;100427.13;;;3.62;46.37
70730;BME280;58315;53.336;55.932;2023-03-18T03:28:32;100422.28;;;3.72;46.67
70730;BME280;58315;53.336;55.932;2023-03-18T03:30:59;100424.78;;;3.92;46.06
70730;BME280;58315;53.336;55.932;2023-03-18T03:33:26;100428.09;;;3.96;45.85
70730;BME280;58315;53.336;55.932;2023-03-18T03:35:52;100434.03;;;3.99;45.63
70730;BME280;58315;53.336;55.932;2023-03-18T03:38:19;100443.31;;;4.05;45.65
70730;BME280;58315;53.336;55.932;2023-03-18T03:40:47;100440.78;;;4.03;45.22
70730;BME280;58315;53.336;55.932;2023-03-18T03:43:14;100435.41;;;4.06;45.67
70730;BME280;58315;53.336;55.932;2023-03-18T03:45:41;100437.00;;;4.09;45.35
70730;BME280;58315;53.336;55.932;2023-03-18T03:48:08;100435.72;;;4.18;45.32
70730;BME280;58315;53.336;55.932;2023-03-18T03:50:37;100430.56;;;4.16;44.94
70730;BME280;58315;53.336;55.932;2023-03-18T03:53:03;100434.63;;;4.22;45.31
70730;BME280;58315;53.336;55.932;2023-03-18T03:55:30;100431.19;;;4.21;45.18
70730;BME280;58315;53.336;55.932;2023-03-18T03:57:56;100431.97;;;4.06;45.32
70730;BME280;58315;53.336;55.932;2023-03-18T04:00:23;100441.00;;;4.16;45.12
70730;BME280;58315;53.336;55.932;2023-03-18T04:02:51;100429.00;;;4.12;45.38
70730;BME280;58315;53.336;55.932;2023-03-18T04:05:22;100440.56;;;4.25;45.88
70730;BME280;58315;53.336;55.932;2023-03-18T04:07:49;100439.78;;;4.23;45.52
70730;BME280;58315;53.336;55.932;2023-03-18T04:10:18;100439.88;;;4.39;45.05
70730;BME280;58315;53.336;55.932;2023-03-18T04:12:46;100445.16;;;4.38;45.72
70730;BME280;58315;53.336;55.932;2023-03-18T04:15:13;100446.25;;;4.33;45.84
70730;BME280;58315;53.336;55.932;2023-03-18T04:17:43;100446.16;;;4.35;45.87
70730;BME280;58315;53.336;55.932;2023-03-18T04:20:11;100445.81;;;4.43;45.18
70730;BME280;58315;53.336;55.932;2023-03-18T04:22:38;100445.63;;;4.46;45.57
70730;BME280;58315;53.336;55.932;2023-03-18T04:25:09;100441.69;;;4.54;45.25
70730;BME280;58315;53.336;55.932;2023-03-18T04:27:36;100455.91;;;4.66;45.33
70730;BME280;58315;53.336;55.932;2023-03-18T04:30:06;100450.22;;;4.75;45.27
70730;BME280;58315;53.336;55.932;2023-03-18T04:32:39;100453.06;;;4.71;45.62
70730;BME280;58315;53.336;55.932;2023-03-18T04:35:06;100450.56;;;4.85;45.94
70730;BME280;58315;53.336;55.932;2023-03-18T04:37:32;100452.09;;;4.89;45.25
70730;BME280;58315;53.336;55.932;2023-03-18T04:40:00;100454.97;;;4.84;46.24
70730;BME280;58315;53.336;55.932;2023-03-18T04:42:28;100451.75;;;4.79;46.11
70730;BME280;58315;53.336;55.932;2023-03-18T04:44:54;100455.19;;;5.13;45.99
70730;BME280;58315;53.336;55.932;2023-03-18T04:47:20;100469.28;;;6.06;45.34
70730;BME280;58315;53.336;55.932;2023-03-18T04:49:49;100454.72;;;7.17;43.31
70730;BME280;58315;53.336;55.932;2023-03-18T04:52:15;100471.19;;;8.29;41.28
70730;BME280;58315;53.336;55.932;2023-03-18T04:54:42;100484.09;;;9.23;39.14
70730;BME280;58315;53.336;55.932;2023-03-18T04:57:09;100488.41;;;10.22;38.73
70730;BME280;58315;53.336;55.932;2023-03-18T04:59:43;100495.69;;;11.11;36.63
70730;BME280;58315;53.336;55.932;2023-03-18T05:02:10;100499.34;;;11.98;36.12
70730;BME280;58315;53.336;55.932;2023-03-18T05:04:37;100499.75;;;12.89;34.64
70730;BME280;58315;53.336;55.932;2023-03-18T05:07:03;100504.63;;;13.35;33.31
70730;BME280;58315;53.336;55.932;2023-03-18T05:09:34;100507.59;;;13.51;33.22
70730;BME280;58315;53.336;55.932;2023-03-18T05:12:00;100513.84;;;13.81;33.70
70730;BME280;58315;53.336;55.932;2023-03-18T05:14:33;100512.31;;;13.79;32.24
70730;BME280;58315;53.336;55.932;2023-03-18T05:17:01;100515.44;;;14.32;32.60
70730;BME280;58315;53.336;55.932;2023-03-18T05:19:29;100513.44;;;14.92;31.79
70730;BME280;58315;53.336;55.932;2023-03-18T05:22:01;100509.56;;;15.52;31.38
70730;BME280;58315;53.336;55.932;2023-03-18T05:24:28;100509.16;;;16.37;30.00
70730;BME280;58315;53.336;55.932;2023-03-18T05:26:54;100510.13;;;16.72;29.53
70730;BME280;58315;53.336;55.932;2023-03-18T05:29:24;100509.84;;;16.75;28.61
70730;BME280;58315;53.336;55.932;2023-03-18T05:32:08;100510.47;;;17.29;28.75
70730;BME280;58315;53.336;55.932;2023-03-18T05:34:36;100509.97;;;17.60;28.77
70730;BME280;58315;53.336;55.932;2023-03-18T05:37:05;100511.50;;;17.36;28.13
70730;BME280;58315;53.336;55.932;2023-03-18T05:39:32;100518.59;;;17.46;28.61
70730;BME280;58315;53.336;55.932;2023-03-18T05:41:59;100515.22;;;17.44;27.75
70730;BME280;58315;53.336;55.932;2023-03-18T05:44:28;100521.09;;;17.47;28.83
70730;BME280;58315;53.336;55.932;2023-03-18T05:46:57;100521.16;;;17.29;28.04
70730;BME280;58315;53.336;55.932;2023-03-18T05:49:38;100531.94;;;16.50;28.75
70730;BME280;58315;53.336;55.932;2023-03-18T05:52:17;100530.88;;;15.52;29.45
70730;BME280;58315;53.336;55.932;2023-03-18T05:54:48;100529.53;;;15.01;29.98
70730;BME280;58315;53.336;55.932;2023-03-18T05:57:21;100529.03;;;14.68;30.24
70730;BME280;58315;53.336;55.932;2023-03-18T05:59:50;100529.97;;;14.09;30.82
70730;BME280;58315;53.336;55.932;2023-03-18T06:02:17;100525.94;;;13.55;31.74
70730;BME280;58315;53.336;55.932;2023-03-18T06:04:43;100525.13;;;12.40;33.48
70730;BME280;58315;53.336;55.932;2023-03-18T06:07:10;100517.22;;;11.85;34.15
70730;BME280;58315;53.336;55.932;2023-03-18T06:09:37;100518.66;;;11.10;35.47
70730;BME280;58315;53.336;55.932;2023-03-18T06:12:06;100513.78;;;10.71;36.59
70730;BME280;58315;53.336;55.932;2023-03-18T06:14:32;100529.69;;;10.35;36.62
70730;BME280;58315;53.336;55.932;2023-03-18T06:17:04;100529.81;;;9.73;37.69
70730;BME280;58315;53.336;55.932;2023-03-18T06:19:31;100530.66;;;9.61;38.44
70730;BME280;58315;53.336;55.932;2023-03-18T06:21:57;100530.97;;;9.69;38.32
70730;BME280;58315;53.336;55.932;2023-03-18T06:24:23;100540.72;;;9.56;38.72
70730;BME280;58315;53.336;55.932;2023-03-18T06:26:49;100539.03;;;9.55;38.72
70730;BME280;58315;53.336;55.932;2023-03-18T06:29:17;100541.88;;;9.39;39.02
70730;BME280;58315;53.336;55.932;2023-03-18T06:31:43;100543.16;;;9.33;39.38
70730;BME280;58315;53.336;55.932;2023-03-18T06:34:12;100546.75;;;9.20;39.50
70730;BME280;58315;53.336;55.932;2023-03-18T06:36:38;100544.53;;;9.26;39.25
70730;BME280;58315;53.336;55.932;2023-03-18T06:39:10;100553.28;;;9.14;39.59
70730;BME280;58315;53.336;55.932;2023-03-18T06:41:37;100557.63;;;9.02;40.11
70730;BME280;58315;53.336;55.932;2023-03-18T06:44:23;100552.88;;;8.94;40.29
70730;BME280;58315;53.336;55.932;2023-03-18T06:46:52;100552.56;;;9.12;40.94
70730;BME280;58315;53.336;55.932;2023-03-18T06:49:20;100549.50;;;9.18;40.95
70730;BME280;58315;53.336;55.932;2023-03-18T06:51:52;100550.00;;;9.36;40.86
70730;BME280;58315;53.336;55.932;2023-03-18T06:54:19;100561.19;;;9.39;40.72
70730;BME280;58315;53.336;55.932;2023-03-18T06:56:45;100564.78;;;9.51;40.75
70730;BME280;58315;53.336;55.932;2023-03-18T06:59:16;100574.25;;;9.54;40.80
70730;BME280;58315;53.336;55.932;2023-03-18T07:01:42;100576.91;;;9.54;40.93
70730;BME280;58315;53.336;55.932;2023-03-18T07:04:10;100578.59;;;9.55;40.47
70730;BME280;58315;53.336;55.932;2023-03-18T07:06:37;100576.50;;;9.47;40.48
70730;BME280;58315;53.336;55.932;2023-03-18T07:09:04;100587.16;;;9.46;40.41
70730;BME280;58315;53.336;55.932;2023-03-18T07:11:30;100580.72;;;9.37;40.61
70730;BME280;58315;53.336;55.932;2023-03-18T07:13:58;100583.56;;;9.34;40.73
70730;BME280;58315;53.336;55.932;2023-03-18T07:16:28;100581.66;;;9.36;40.54
70730;BME280;58315;53.336;55.932;2023-03-18T07:18:56;100585.28;;;9.22;40.89
70730;BME280;58315;53.336;55.932;2023-03-18T07:21:24;100577.22;;;8.98;41.66
70730;BME280;58315;53.336;55.932;2023-03-18T07:23:51;100578.72;;;8.89;41.78
70730;BME280;58315;53.336;55.932;2023-03-18T07:26:19;100583.25;;;9.13;42.17
70730;BME280;58315;53.336;55.932;2023-03-18T07:28:46;100592.44;;;9.58;40.87
70730;BME280;58315;53.336;55.932;2023-03-18T07:31:13;100583.94;;;9.79;41.08
70730;BME280;58315;53.336;55.932;2023-03-18T07:33:39;100584.00;;;9.90;40.40
70730;BME280;58315;53.336;55.932;2023-03-18T07:36:05;100583.94;;;10.15;41.25
70730;BME280;58315;53.336;55.932;2023-03-18T07:38:32;100583.00;;;10.17;40.83
70730;BME280;58315;53.336;55.932;2023-03-18T07:40:58;100575.16;;;10.28;40.62
70730;BME280;58315;53.336;55.932;2023-03-18T07:43:25;100585.50;;;10.18;41.48
70730;BME280;58315;53.336;55.932;2023-03-18T07:45:51;100579.81;;;10.11;41.25
70730;BME280;58315;53.336;55.932;2023-03-18T07:48:17;100583.03;;;10.04;41.22
70730;BME280;58315;53.336;55.932;2023-03-18T07:50:44;100582.41;;;10.00;41.76
70730;BME280;58315;53.336;55.932;2023-03-18T07:53:10;100584.06;;;10.01;41.74
70730;BME280;58315;53.336;55.932;2023-03-18T07:55:37;100578.63;;;9.92;42.11
70730;BME280;58315;53.336;55.932;2023-03-18T07:58:03;100576.47;;;10.09;41.56
70730;BME280;58315;53.336;55.932;2023-03-18T08:00:30;100575.66;;;9.96;41.91
70730;BME280;58315;53.336;55.932;2023-03-18T08:02:57;100588.09;;;9.94;42.08
70730;BME280;58315;53.336;55.932;2023-03-18T08:05:22;100590.28;;;10.13;42.34
70730;BME280;58315;53.336;55.932;2023-03-18T08:07:48;100583.63;;;10.44;42.09
70730;BME280;58315;53.336;55.932;2023-03-18T08:10:15;100583.56;;;10.33;41.73
70730;BME280;58315;53.336;55.932;2023-03-18T08:12:41;100590.03;;;10.29;41.49
70730;BME280;58315;53.336;55.932;2023-03-18T08:15:08;100597.31;;;10.49;41.89
70730;BME280;58315;53.336;55.932;2023-03-18T08:17:34;100595.44;;;10.51;41.09
70730;BME280;58315;53.336;55.932;2023-03-18T08:20:00;100590.16;;;10.51;41.47
70730;BME280;58315;53.336;55.932;2023-03-18T08:22:26;100588.75;;;10.58;40.89
70730;BME280;58315;53.336;55.932;2023-03-18T08:24:52;100596.41;;;10.50;40.79
70730;BME280;58315;53.336;55.932;2023-03-18T08:27:19;100602.41;;;10.15;41.75
70730;BME280;58315;53.336;55.932;2023-03-18T08:29:48;100597.41;;;10.24;41.17
70730;BME280;58315;53.336;55.932;2023-03-18T08:32:15;100602.06;;;9.96;42.10
70730;BME280;58315;53.336;55.932;2023-03-18T08:34:42;100598.91;;;9.91;41.70
70730;BME280;58315;53.336;55.932;2023-03-18T08:37:08;100611.31;;;10.02;41.83
70730;BME280;58315;53.336;55.932;2023-03-18T08:39:34;100603.94;;;10.07;41.86
70730;BME280;58315;53.336;55.932;2023-03-18T08:42:04;100605.19;;;10.01;41.99
70730;BME280;58315;53.336;55.932;2023-03-18T08:44:30;100602.13;;;10.07;42.32
70730;BME280;58315;53.336;55.932;2023-03-18T08:46:56;100605.13;;;9.90;42.51
70730;BME280;58315;53.336;55.932;2023-03-18T08:49:23;100601.16;;;9.72;43.25
70730;BME280;58315;53.336;55.932;2023-03-18T08:51:49;100604.84;;;9.82;43.33
70730;BME280;58315;53.336;55.932;2023-03-18T08:54:16;100605.59;;;10.08;42.36
70730;BME280;58315;53.336;55.932;2023-03-18T08:56:42;100602.34;;;10.04;42.83
70730;BME280;58315;53.336;55.932;2023-03-18T08:59:08;100602.09;;;10.20;42.30
70730;BME280;58315;53.336;55.932;2023-03-18T09:01:35;100596.91;;;10.19;42.67
70730;BME280;58315;53.336;55.932;2023-03-18T09:04:02;100600.31;;;10.21;42.29
70730;BME280;58315;53.336;55.932;2023-03-18T09:06:28;100600.19;;;9.85;43.24
70730;BME280;58315;53.336;55.932;2023-03-18T09:08:55;100614.25;;;9.60;43.32
70730;BME280;58315;53.336;55.932;2023-03-18T09:11:21;100615.31;;;9.58;43.48
70730;BME280;58315;53.336;55.932;2023-03-18T09:13:47;100614.81;;;9.40;43.90
70730;BME280;58315;53.336;55.932;2023-03-18T09:16:13;100617.94;;;9.32;44.10
70730;BME280;58315;53.336;55.932;2023-03-18T09:18:39;100613.75;;;9.55;43.79
70730;BME280;58315;53.336;55.932;2023-03-18T09:21:05;100624.41;;;9.41;44.38
70730;BME280;58315;53.336;55.932;2023-03-18T09:23:32;100621.66;;;9.55;43.85
70730;BME280;58315;53.336;55.932;2023-03-18T09:25:59;100618.16;;;9.80;43.44
70730;BME280;58315;53.336;55.932;2023-03-18T09:28:25;100622.13;;;9.86;43.18
70730;BME280;58315;53.336;55.932;2023-03-18T09:30:51;100635.47;;;9.84;42.79
70730;BME280;58315;53.336;55.932;2023-03-18T09:33:18;100632.81;;;9.72;43.19
70730;BME280;58315;53.336;55.932;2023-03-18T09:35:46;100632.94;;;9.19;44.11
70730;BME280;58315;53.336;55.932;2023-03-18T09:38:14;100634.84;;;9.30;44.50
70730;BME280;58315;53.336;55.932;2023-03-18T09:41:06;100629.97;;;9.24;44.29
70730;BME280;58315;53.336;55.932;2023-03-18T09:46:31;100649.91;;;9.15;44.87
70730;BME280;58315;53.336;55.932;2023-03-18T09:49:14;100646.56;;;9.26;44.65
70730;BME280;58315;53.336;55.932;2023-03-18T09:51:49;100646.44;;;9.27;44.90
70730;BME280;58315;53.336;55.932;2023-03-18T09:57:24;100654.44;;;9.13;45.25
70730;BME280;58315;53.336;55.932;2023-03-18T10:00:02;100656.75;;;9.05;45.54
70730;BME280;58315;53.336;55.932;2023-03-18T10:02:45;100652.94;;;8.96;45.86
70730;BME280;58315;53.336;55.932;2023-03-18T10:05:18;100655.72;;;9.07;45.88
70730;BME280;58315;53.336;55.932;2023-03-18T10:07:49;100664.66;;;9.17;45.62
70730;BME280;58315;53.336;55.932;2023-03-18T10:10:36;100667.94;;;9.21;45.94
70730;BME280;58315;53.336;55.932;2023-03-18T10:15:37;100666.81;;;9.38;45.70
70730;BME280;58315;53.336;55.932;2023-03-18T10:18:23;100675.97;;;9.32;45.78
70730;BME280;58315;53.336;55.932;2023-03-18T10:21:16;100680.41;;;9.19;46.66
70730;BME280;58315;53.336;55.932;2023-03-18T10:26:46;100678.53;;;9.59;45.61
70730;BME280;58315;53.336;55.932;2023-03-18T10:32:06;100682.56;;;9.78;45.69
70730;BME280;58315;53.336;55.932;2023-03-18T10:37:20;100701.66;;;9.81;45.07
70730;BME280;58315;53.336;55.932;2023-03-18T10:39:49;100693.75;;;9.56;45.55
70730;BME280;58315;53.336;55.932;2023-03-18T10:42:22;100696.69;;;9.64;45.47
70730;BME280;58315;53.336;55.932;2023-03-18T10:44:49;100694.25;;;9.61;45.57
70730;BME280;58315;53.336;55.932;2023-03-18T10:47:22;100705.66;;;9.61;45.66
70730;BME280;58315;53.336;55.932;2023-03-18T10:52:32;100695.31;;;9.33;46.20
70730;BME280;58315;53.336;55.932;2023-03-18T10:55:00;100688.84;;;9.11;46.59
70730;BME280;58315;53.336;55.932;2023-03-18T10:57:27;100710.31;;;9.05;46.68
70730;BME280;58315;53.336;55.932;2023-03-18T10:59:53;100711.97;;;8.93;47.35
70730;BME280;58315;53.336;55.932;2023-03-18T11:02:25;100708.94;;;8.73;47.88
70730;BME280;58315;53.336;55.932;2023-03-18T11:05:21;100711.88;;;8.68;48.44
70730;BME280;58315;53.336;55.932;2023-03-18T11:08:06;100712.72;;;8.68;48.67
70730;BME280;58315;53.336;55.932;2023-03-18T11:10:35;100709.56;;;8.63;48.96
70730;BME280;58315;53.336;55.932;2023-03-18T11:13:04;100707.75;;;8.64;48.89
70730;BME280;58315;53.336;55.932;2023-03-18T11:15:43;100722.13;;;8.73;49.01
70730;BME280;58315;53.336;55.932;2023-03-18T11:18:15;100706.00;;;8.77;49.34
70730;BME280;58315;53.336;55.932;2023-03-18T11:20:44;100719.59;;;8.71;49.43
70730;BME280;58315;53.336;55.932;2023-03-18T11:23:18;100720.31;;;8.73;49.20
70730;BME280;58315;53.336;55.932;2023-03-18T11:25:54;100720.97;;;8.77;49.33
70730;BME280;58315;53.336;55.932;2023-03-18T11:28:22;100719.28;;;8.49;49.98
70730;BME280;58315;53.336;55.932;2023-03-18T11:30:56;100719.94;;;8.52;50.22
70730;BME280;58315;53.336;55.932;2023-03-18T11:33:29;100723.41;;;8.53;50.21
70730;BME280;58315;53.336;55.932;2023-03-18T11:35:59;100713.63;;;8.40;50.05
70730;BME280;58315;53.336;55.932;2023-03-18T11:38:34;100715.03;;;8.46;50.03
70730;BME280;58315;53.336;55.932;2023-03-18T11:43:35;100716.47;;;8.37;50.56
70730;BME280;58315;53.336;55.932;2023-03-18T11:46:04;100713.63;;;8.40;50.53
70730;BME280;58315;53.336;55.932;2023-03-18T11:48:36;100718.28;;;8.08;51.39
70730;BME280;58315;53.336;55.932;2023-03-18T12:01:53;100735.56;;;8.12;51.43
70730;BME280;58315;53.336;55.932;2023-03-18T12:09:50;100736.88;;;7.91;51.82
70730;BME280;58315;53.336;55.932;2023-03-18T12:20:17;100751.28;;;7.55;52.81
70730;BME280;58315;53.336;55.932;2023-03-18T12:28:36;100757.19;;;7.14;53.46
70730;BME280;58315;53.336;55.932;2023-03-18T12:41:40;100779.31;;;7.10;53.55
70730;BME280;58315;53.336;55.932;2023-03-18T12:44:24;100779.94;;;6.99;53.74
70730;BME280;58315;53.336;55.932;2023-03-18T12:47:19;100784.94;;;6.88;53.86
70730;BME280;58315;53.336;55.932;2023-03-18T12:49:57;100780.97;;;6.81;53.77
70730;BME280;58315;53.336;55.932;2023-03-18T12:57:53;100800.19;;;6.82;54.32
70730;BME280;58315;53.336;55.932;2023-03-18T13:00:38;100802.31;;;6.75;54.37
70730;BME280;58315;53.336;55.932;2023-03-18T13:03:35;100807.56;;;6.91;53.79
70730;BME280;58315;53.336;55.932;2023-03-18T13:11:20;100804.94;;;6.59;54.12
70730;BME280;58315;53.336;55.932;2023-03-18T13:13:53;100805.88;;;6.58;54.66
70730;BME280;58315;53.336;55.932;2023-03-18T13:16:21;100802.88;;;6.33;55.18
70730;BME280;58315;53.336;55.932;2023-03-18T13:18:52;100812.84;;;6.42;54.96
70730;BME280;58315;53.336;55.932;2023-03-18T13:21:25;100815.31;;;6.45;54.62
70730;BME280;58315;53.336;55.932;2023-03-18T13:26:52;100821.97;;;6.68;54.47
70730;BME280;58315;53.336;55.932;2023-03-18T13:35:20;100828.56;;;6.59;54.08
70730;BME280;58315;53.336;55.932;2023-03-18T13:38:49;100830.25;;;6.44;54.31
70730;BME280;58315;53.336;55.932;2023-03-18T13:44:15;100845.16;;;6.44;54.43
70730;BME280;58315;53.336;55.932;2023-03-18T13:46:55;100850.22;;;6.47;54.14
70730;BME280;58315;53.336;55.932;2023-03-18T13:49:26;100856.28;;;6.32;54.38
70730;BME280;58315;53.336;55.932;2023-03-18T13:52:03;100853.22;;;6.23;54.33
70730;BME280;58315;53.336;55.932;2023-03-18T13:54:37;100851.72;;;6.18;54.76
70730;BME280;58315;53.336;55.932;2023-03-18T14:00:24;100854.91;;;6.24;54.96
70730;BME280;58315;53.336;55.932;2023-03-18T14:05:32;100875.97;;;6.40;54.14
70730;BME280;58315;53.336;55.932;2023-03-18T14:08:03;100876.66;;;6.44;54.30
70730;BME280;58315;53.336;55.932;2023-03-18T14:10:30;100877.56;;;6.43;53.82
70730;BME280;58315;53.336;55.932;2023-03-18T14:13:33;100876.44;;;6.31;54.44
70730;BME280;58315;53.336;55.932;2023-03-18T14:16:07;100884.75;;;6.39;54.20
70730;BME280;58315;53.336;55.932;2023-03-18T14:18:35;100885.78;;;6.19;54.29
70730;BME280;58315;53.336;55.932;2023-03-18T14:21:04;100886.88;;;6.15;54.28
70730;BME280;58315;53.336;55.932;2023-03-18T14:24:08;100888.47;;;6.18;54.85
70730;BME280;58315;53.336;55.932;2023-03-18T14:26:36;100889.34;;;6.01;55.27
70730;BME280;58315;53.336;55.932;2023-03-18T14:31:33;100890.44;;;5.97;55.06
70730;BME280;58315;53.336;55.932;2023-03-18T14:41:52;100890.69;;;5.73;56.13
70730;BME280;58315;53.336;55.932;2023-03-18T14:44:44;100902.50;;;5.65;56.47
70730;BME280;58315;53.336;55.932;2023-03-18T14:47:24;100909.44;;;5.66;56.95
70730;BME280;58315;53.336;55.932;2023-03-18T14:50:03;100911.88;;;5.51;57.46
70730;BME280;58315;53.336;55.932;2023-03-18T14:52:33;100912.41;;;5.58;56.62